Local Weather Ingen bokad jour idag Saturday 2nd of July
Flygplats METAR TAF
Airport METAR TAF
ESSL - Linköping020350Z 27013G26KT 230V300 9000 -RA FEW002 BKN008 BKN034 17/16 Q1011=AMD 020354Z 0203/0205 26012G22KT 9999 -RA BKN030 TEMPO 0203/0205 4000 SHRA BKN008 BKN040CB=
ESCF - Malmen020350Z AUTO 25015KT 9999 DZ FEW002/// OVC006/// 16/16 Q1012 RERA=NO VALID TAF PUBLISHED
ESSP - Norrköping020350Z 24007KT 9999 FEW005 SCT015 BKN039 19/19 Q1010=020330Z 0204/0207 20004KT 1400 RA OVC002 BECMG 0204/0206 26010KT 9999 NSW SCT012 BKN015=
ESGJ - Jönköping020350Z AUTO 24006KT 9999 FEW018/// BKN051/// 13/13 Q1015=NO VALID TAF PUBLISHED
ESKN - Skavsta020350Z 14011KT 9999 BKN009 21/19 Q1010=020230Z 0203/0303 16008KT CAVOK PROB40 0203/0205 SHRA BKN009 BKN030CB PROB40 0205/0209 BKN009 BECMG 0205/0207 26010KT=
ESSV - Visby020350Z AUTO 20010KT 9999 OVC011/// 20/18 Q1014=NO VALID TAF PUBLISHED
ESGG - Göteborg020350Z 24005KT 9999 FEW015 13/12 Q1015=020230Z 0203/0303 25008KT 9999 -RA SCT006 BKN045 PROB40 0203/0206 SHRA BKN004 BKN020TCU PROB40 0212/0218 SHRA SCT030CB=
FLEET STATUS
Flygplan Tid till service Tid till flygstopp Flygtid Landningar
Aircraft To service To stop Total time Landings
SE-IUD16.7 h21.7 h12 633.3 h25 900 st.
SE-KIT35.2 h40.2 h12 914.8 h25 627 st.
(1) GS NAV1 US
SE-KMH47.7 h52.7 h16 802.3 h62 392 st.
SE-LRL49.0 h59.0 h1 601.0 h3 176 st.
SE-MEB18.8 h28.8 h1 881.2 h5 699 st.
SE-MEKN/AN/A3 896.0 h4 100 st.
SE-MMZN/AN/A891.2 h750 st.
PPR
Ankomst Avgång Flygplan Namn Bränsle
Arrival Departure Aircraft Name Fuel
NOTAM
>>> ESSL/LINKOPING/SAAB <<<
+ AERODROME CONTROL TOWER (TWR) HOURS OF SERVICE ARE NOW THU-FRI 0330-1500 2040-2140, SAT 0335-0435 1415-1530 2040-2140, SUN 0340-0440 0630-0900 1455-1625 2040-2140 FROM: 30 JUN 2022 11:12 TO: 03 JUL 2022 23:59
+ DUE WIP EXPECT UP TO 30 MIN DELAY. SCHEDULED, HOSP AND MILITARY TRAFFIC NOT AFFECTED. FROM: 13 JUN 2022 07:17 TO: 09 JUL 2022 06:00
+ ALL TRAFFIC REQUIRE PPR FROM ATS FOR APCHS AND TGL. ATS TEL +46(0)60646213 FROM: 13 JUN 2022 07:04 TO: 15 AUG 2022 11:00 EST
+ AERODROME CAUTION ADVISED WORK IN PROGRESS NORTH OF RWY 11/29 500M FROM THR RWY 29. TFC NOT AFFECTED FROM: 07 JUN 2022 09:49 TO: 06 SEP 2022 10:00 EST
+ AERODROME CAUTION WORK IN PROGRESS S OF RWY 11/29 W OF TWY I AND N OF RWY11/29 E OF TWY L. TRAFFIC NOT AFFECTED. FROM: 25 MAY 2022 10:13 TO: 15 AUG 2022 10:00 EST
+ INFORMATION REGARDING PPR HOSP AND SAR FLIGHTS OUTSIDE HR OF AD ADMINISTRATION CONTACT JRCC FROM: 25 APR 2022 10:11 TO: 25 JUL 2022 10:00 EST
+ APRON SELF-MANOEUVERING ONLY. MARSHALLING MANDATORY FROM: 01 NOV 2021 09:57 TO: 26 OCT 2022 23:59
>>> ESSP/NORRKOPING/KUNGSANGEN <<<
+ TWO CRANES ERECTED SW OF THR RWY 09 PSN 583426N 0161309E HGT 247FT AGL ELEV 305FT AMSL. FROM: 10 JUN 2022 08:35 TO: 30 JUL 2022 20:00
+ CRANE ERECTED IN APCH RWY09 PSN 583523N 0161100E HGT 253FT AGL ELEV 263FT AMSL. LGTD FIXED RED. FROM: 10 JUN 2022 08:34 TO: 05 SEP 2022 12:00 EST
+ FUEL AVAILABILITY HOURS OF SERVICE ARE NOW MON 0700-1530, TUE 0630-1330, WED 0700-1700, THU 0630-1330, FRI 0630-1230, SAT 0315-0500 1230-1600 2230-2330, SUN 0500-0600 1330-1530 FROM: 27 JUN 2022 00:00 TO: 31 JUL 2022 23:59
+ AERODROME CONTROL TOWER (TWR) HOURS OF SERVICE ARE NOW MON 0700-1630 TUE 0630-1430, WED 0700-1800, THU 0630-1430, FRI 0630-1330, SAT 0315-0600 1230-1700 2230-2359, SUN 0000-0030, 0500-0700 1330-1630 FROM: 27 JUN 2022 00:00 TO: 31 JUL 2022 23:59
+ OBST ERECTED PSN 583512N 0161215E HGT 137FT AGL ELEV 179FT AMSL. LGTD FR FROM: 03 JUN 2022 08:00 TO: 29 JUL 2022 13:30 EST
>>> ESCF/LINKOPING/MALMEN <<<